Time;durP1;ratioP1;P1;durP2;ratioP2;P2;SDS_P1;SDS_P2;PMS_P1;PMS_P2;Temp;Humidity;BMP_temperature;BMP_pressure;BME280_temperature;BME280_humidity;BME280_pressure;Samples;Min_cycle;Max_cycle;Signal;HPM_P1;HPM_P2
2021/06/29 00:01:05;;;;;;;5.75;2.72;;;14.80;86.80;;;;;;5093604;28;20023;-50
2021/06/29 00:03:32;;;;;;;3.67;2.08;;;14.90;87.00;;;;;;5093883;28;20534;-56
2021/06/29 00:05:59;;;;;;;3.95;1.95;;;14.90;87.00;;;;;;5094146;28;20031;-53
2021/06/29 00:08:27;;;;;;;3.95;1.95;;;14.90;87.40;;;;;;5094555;28;20383;-53
2021/06/29 00:10:54;;;;;;;4.10;2.20;;;14.90;86.90;;;;;;5092985;28;20123;-53
2021/06/29 00:13:22;;;;;;;4.28;2.00;;;14.90;86.60;;;;;;5094344;28;20039;-57
2021/06/29 00:15:51;;;;;;;3.33;2.22;;;14.90;86.60;;;;;;5111244;28;20127;-54
2021/06/29 00:18:18;;;;;;;6.75;2.33;;;15.00;86.80;;;;;;5113957;28;20435;-53
2021/06/29 00:20:46;;;;;;;4.25;2.30;;;14.90;86.50;;;;;;5113740;28;20388;-53
2021/06/29 00:23:13;;;;;;;6.63;2.67;;;14.90;86.50;;;;;;5112515;28;20020;-53
2021/06/29 00:25:41;;;;;;;7.38;2.67;;;14.90;86.70;;;;;;5113340;28;20035;-55
2021/06/29 00:28:08;;;;;;;5.40;2.10;;;14.90;86.60;;;;;;5113347;28;20347;-54
2021/06/29 00:30:35;;;;;;;3.33;2.20;;;14.90;86.60;;;;;;5113776;28;20059;-55
2021/06/29 00:33:03;;;;;;;3.58;2.03;;;14.90;86.80;;;;;;5113763;28;20072;-55
2021/06/29 00:35:30;;;;;;;4.13;2.15;;;14.90;86.70;;;;;;5113595;28;20382;-52
2021/06/29 00:37:58;;;;;;;3.75;1.92;;;14.90;86.80;;;;;;5113569;28;20057;-51
2021/06/29 00:40:26;;;;;;;2.40;1.80;;;14.90;86.90;;;;;;5113525;28;20106;-56
2021/06/29 00:42:53;;;;;;;3.58;1.70;;;14.90;87.00;;;;;;5113582;28;20031;-53
2021/06/29 00:45:21;;;;;;;4.22;2.15;;;14.90;87.10;;;;;;5113200;28;20020;-51
2021/06/29 00:47:48;;;;;;;6.22;2.30;;;14.90;86.90;;;;;;5112507;28;20027;-49
2021/06/29 00:50:16;;;;;;;3.17;2.00;;;14.80;87.10;;;;;;5112947;28;20058;-56
2021/06/29 00:52:43;;;;;;;4.28;2.05;;;14.90;87.20;;;;;;5113403;28;20045;-53
2021/06/29 00:55:14;;;;;;;3.38;1.83;;;14.80;87.10;;;;;;5113281;28;20023;-51
2021/06/29 00:57:44;;;;;;;4.15;2.17;;;14.80;87.00;;;;;;5111716;28;20034;-53
2021/06/29 01:00:12;;;;;;;5.05;2.25;;;14.80;87.10;;;;;;5113267;28;20431;-51
2021/06/29 01:02:40;;;;;;;5.18;2.00;;;14.80;87.30;;;;;;5113414;28;20387;-49
2021/06/29 01:05:08;;;;;;;5.28;2.08;;;14.80;87.50;;;;;;5113215;28;20515;-53
2021/06/29 01:07:36;;;;;;;4.22;2.22;;;14.80;87.60;;;;;;5112968;28;20031;-53
2021/06/29 01:10:06;;;;;;;5.82;2.42;;;14.80;87.40;;;;;;5113069;28;20065;-50
2021/06/29 01:12:37;;;;;;;5.10;2.60;;;14.80;87.40;;;;;;5112976;28;20020;-55
2021/06/29 01:15:06;;;;;;;3.63;2.13;;;14.80;87.50;;;;;;5113105;28;20119;-50
2021/06/29 01:17:33;;;;;;;4.43;2.20;;;14.80;87.50;;;;;;5112677;28;20106;-53
2021/06/29 01:20:13;;;;;;;2.97;1.80;;;14.80;87.60;;;;;;5112992;28;20049;-52
2021/06/29 01:22:42;;;;;;;5.35;2.60;;;14.80;87.50;;;;;;5111973;28;20019;-52
2021/06/29 01:25:11;;;;;;;4.13;1.83;;;14.80;87.60;;;;;;5113294;28;20024;-55
2021/06/29 01:32:40;;;;;;;4.70;2.05;;;14.90;87.90;;;;;;5113313;28;20354;-55
2021/06/29 01:35:09;;;;;;;4.82;1.92;;;14.90;87.70;;;;;;5112136;28;20365;-52
2021/06/29 01:37:37;;;;;;;3.67;2.03;;;14.90;87.80;;;;;;5112423;28;20024;-52
2021/06/29 01:40:16;;;;;;;4.40;2.13;;;14.90;88.00;;;;;;5112773;28;20091;-52
2021/06/29 01:42:43;;;;;;;3.15;2.05;;;14.90;88.10;;;;;;5112657;28;20697;-51
2021/06/29 01:45:11;;;;;;;3.28;2.10;;;14.90;88.00;;;;;;5112384;28;20103;-53
2021/06/29 01:50:18;;;;;;;4.22;2.38;;;14.90;88.50;;;;;;5112728;28;20032;-53
2021/06/29 01:52:48;;;;;;;5.88;2.33;;;15.00;88.20;;;;;;5112615;28;20028;-51
2021/06/29 01:55:16;;;;;;;4.55;2.15;;;15.00;88.20;;;;;;5112764;28;20047;-51
2021/06/29 01:57:46;;;;;;;6.20;2.58;;;15.00;88.20;;;;;;5112350;28;20028;-54
2021/06/29 02:00:14;;;;;;;3.85;2.58;;;15.10;89.10;;;;;;5116549;28;20024;-51
2021/06/29 02:02:42;;;;;;;6.32;2.65;;;15.20;90.70;;;;;;5116825;28;20020;-52
2021/06/29 02:05:10;;;;;;;4.40;2.55;;;15.40;91.70;;;;;;5116772;28;20053;-53
2021/06/29 02:07:37;;;;;;;2.92;1.95;;;15.60;90.70;;;;;;5116448;28;20504;-57
2021/06/29 02:10:06;;;;;;;5.55;2.83;;;15.90;88.30;;;;;;5116521;28;20028;-55
2021/06/29 02:12:33;;;;;;;5.32;2.33;;;16.10;89.90;;;;;;5116773;28;20356;-53
2021/06/29 02:15:00;;;;;;;7.00;2.63;;;16.30;89.10;;;;;;5116673;28;20024;-55
2021/06/29 02:17:28;;;;;;;4.78;1.98;;;16.60;87.90;;;;;;5095846;28;20028;-55
2021/06/29 02:19:55;;;;;;;4.32;2.30;;;16.80;82.40;;;;;;5094260;28;20040;-54
2021/06/29 02:22:23;;;;;;;4.95;2.25;;;16.80;83.30;;;;;;5094501;28;20020;-56
2021/06/29 02:24:50;;;;;;;4.35;2.15;;;16.80;84.50;;;;;;5095810;28;20024;-54
2021/06/29 02:27:17;;;;;;;4.70;2.15;;;16.80;84.30;;;;;;5096021;28;20127;-59
2021/06/29 02:29:45;;;;;;;3.70;1.90;;;17.00;84.30;;;;;;5094506;28;20036;-56
2021/06/29 02:32:12;;;;;;;6.10;2.67;;;17.30;82.40;;;;;;5096115;28;20384;-56
2021/06/29 02:34:39;;;;;;;7.03;4.10;;;17.60;85.40;;;;;;5095543;28;20099;-58
2021/06/29 02:37:07;;;;;;;5.45;3.08;;;17.90;80.80;;;;;;5095983;28;20467;-55
2021/06/29 02:39:34;;;;;;;4.55;2.40;;;18.20;80.50;;;;;;5095565;28;20362;-50
2021/06/29 02:42:02;;;;;;;2.72;1.70;;;18.40;78.60;;;;;;5095748;28;20024;-55
2021/06/29 02:44:32;;;;;;;4.28;1.85;;;18.50;74.70;;;;;;5095442;28;20065;-52
2021/06/29 02:46:59;;;;;;;5.05;1.65;;;18.50;76.70;;;;;;5095191;28;20035;-55
2021/06/29 02:49:26;;;;;;;4.68;2.08;;;18.60;76.60;;;;;;5095479;28;20394;-53
2021/06/29 02:51:54;;;;;;;4.47;2.22;;;18.70;80.00;;;;;;5095335;28;20024;-55
2021/06/29 02:54:21;;;;;;;2.83;1.65;;;19.00;74.90;;;;;;5095332;28;20040;-51
2021/06/29 02:56:49;;;;;;;5.40;2.08;;;19.20;74.20;;;;;;5095304;28;20367;-54
2021/06/29 02:59:17;;;;;;;3.85;1.92;;;19.30;71.80;;;;;;5095390;28;20490;-54
2021/06/29 03:01:45;;;;;;;5.35;1.55;;;19.20;71.90;;;;;;5094789;28;20489;-54
2021/06/29 03:04:13;;;;;;;5.95;2.20;;;19.00;71.80;;;;;;5094865;28;20451;-58
2021/06/29 03:06:40;;;;;;;1.83;1.48;;;18.80;76.40;;;;;;5095467;28;20028;-56
2021/06/29 03:09:09;;;;;;;9.85;1.90;;;18.60;74.20;;;;;;5095065;28;20032;-52
2021/06/29 03:11:38;;;;;;;3.28;1.90;;;18.50;74.70;;;;;;5093813;28;20027;-48
2021/06/29 03:14:05;;;;;;;3.75;1.83;;;18.30;78.00;;;;;;5094951;28;20089;-55
2021/06/29 03:16:33;;;;;;;2.92;1.75;;;18.10;79.90;;;;;;5094798;28;20031;-59
2021/06/29 03:19:00;;;;;;;4.57;2.03;;;18.00;76.00;;;;;;5093974;28;20097;-53
2021/06/29 03:21:28;;;;;;;4.25;1.67;;;17.80;78.40;;;;;;5094744;28;20512;-55
2021/06/29 03:23:55;;;;;;;2.60;1.42;;;17.70;78.30;;;;;;5094965;28;20036;-54
2021/06/29 03:26:23;;;;;;;2.67;1.38;;;17.60;79.10;;;;;;5094744;28;20085;-57
2021/06/29 03:28:51;;;;;;;3.25;1.77;;;17.50;78.30;;;;;;5095265;28;20028;-54
2021/06/29 03:31:18;;;;;;;7.20;1.83;;;17.50;80.80;;;;;;5095022;28;20095;-59
2021/06/29 03:33:46;;;;;;;4.85;2.13;;;17.50;83.40;;;;;;5094604;28;20039;-52
2021/06/29 03:36:13;;;;;;;2.58;1.73;;;17.40;80.00;;;;;;5094998;28;20031;-52
2021/06/29 03:38:41;;;;;;;5.93;2.25;;;17.40;81.60;;;;;;5094990;28;20035;-52
2021/06/29 03:41:09;;;;;;;3.15;1.90;;;17.40;84.00;;;;;;5095089;28;20028;-53
2021/06/29 03:43:38;;;;;;;3.85;1.67;;;17.40;82.10;;;;;;5094342;28;20028;-53
2021/06/29 03:46:06;;;;;;;2.00;1.30;;;17.40;81.70;;;;;;5094214;28;20165;-55
2021/06/29 03:48:35;;;;;;;2.42;1.60;;;17.30;81.00;;;;;;5093914;28;20028;-54
2021/06/29 03:51:02;;;;;;;4.45;2.15;;;17.20;82.30;;;;;;5093986;28;20020;-55
2021/06/29 03:53:30;;;;;;;5.88;1.58;;;17.20;82.20;;;;;;5094048;28;20024;-52
2021/06/29 03:55:57;;;;;;;5.10;1.65;;;17.10;83.90;;;;;;5093652;28;20046;-54
2021/06/29 03:58:25;;;;;;;3.95;1.90;;;17.10;85.10;;;;;;5094126;28;20111;-55
2021/06/29 04:00:52;;;;;;;2.85;1.60;;;17.10;84.00;;;;;;5093672;28;20082;-54
2021/06/29 04:03:19;;;;;;;6.90;2.33;;;17.00;81.60;;;;;;5093957;28;20028;-55
2021/06/29 04:05:47;;;;;;;10.88;4.43;;;17.00;83.70;;;;;;5085562;28;20028;-52
2021/06/29 04:08:14;;;;;;;24.63;8.02;;;16.90;82.30;;;;;;5090591;28;20020;-54
2021/06/29 04:10:42;;;;;;;39.38;12.38;;;16.90;83.70;;;;;;5090735;28;20031;-57
2021/06/29 04:13:09;;;;;;;32.28;11.88;;;16.90;84.90;;;;;;5090397;28;20398;-59
2021/06/29 04:15:36;;;;;;;34.95;12.75;;;16.90;84.30;;;;;;5089156;28;20075;-57
2021/06/29 04:18:09;;;;;;;40.45;14.63;;;16.90;85.30;;;;;;5090453;28;20043;-51
2021/06/29 04:20:37;;;;;;;39.70;13.15;;;16.90;85.80;;;;;;5090093;28;20024;-59
2021/06/29 04:23:04;;;;;;;41.05;14.77;;;16.80;86.70;;;;;;5089891;28;20052;-53
2021/06/29 04:25:32;;;;;;;61.35;21.42;;;16.90;85.70;;;;;;5088523;28;20069;-57
2021/06/29 04:27:59;;;;;;;50.63;18.67;;;16.80;84.80;;;;;;5089041;28;20044;-54
2021/06/29 04:30:27;;;;;;;65.72;22.42;;;16.80;85.50;;;;;;5089616;28;20036;-57
2021/06/29 04:32:54;;;;;;;74.53;24.02;;;16.80;85.40;;;;;;5090475;28;20019;-54
2021/06/29 04:35:22;;;;;;;70.38;23.30;;;16.80;84.90;;;;;;5087315;28;20028;-50
2021/06/29 04:37:50;;;;;;;63.15;23.00;;;16.80;85.60;;;;;;5088392;28;20028;-51
2021/06/29 04:40:17;;;;;;;62.42;23.02;;;16.80;85.00;;;;;;5089107;28;20559;-54
2021/06/29 04:42:46;;;;;;;77.90;26.02;;;16.80;87.00;;;;;;5090876;28;20028;-54
2021/06/29 04:45:14;;;;;;;88.80;33.05;;;16.80;87.10;;;;;;5086955;28;20056;-49
2021/06/29 04:47:48;;;;;;;94.97;33.03;;;16.70;85.30;;;;;;5088986;28;20538;-56
2021/06/29 04:50:16;;;;;;;95.72;32.42;;;16.80;86.00;;;;;;5087186;28;20042;-56
2021/06/29 04:52:44;;;;;;;84.03;31.73;;;16.80;86.40;;;;;;5087294;28;20012;-57
2021/06/29 04:55:13;;;;;;;88.13;32.55;;;16.80;86.40;;;;;;5086067;28;20106;-58
2021/06/29 04:57:40;;;;;;;104.03;37.17;;;16.70;87.10;;;;;;5089006;28;20023;-54
2021/06/29 05:00:10;;;;;;;102.43;38.00;;;16.70;85.80;;;;;;5089509;28;20032;-55
2021/06/29 05:02:38;;;;;;;89.05;33.60;;;16.70;85.80;;;;;;5088756;28;20028;-55
2021/06/29 05:05:07;;;;;;;96.38;33.30;;;16.70;85.90;;;;;;5086230;28;20640;-52
2021/06/29 05:07:40;;;;;;;87.38;32.90;;;16.70;87.00;;;;;;5089458;28;20012;-55
2021/06/29 05:10:10;;;;;;;95.28;34.72;;;16.70;86.50;;;;;;5090090;28;20097;-55
2021/06/29 05:12:38;;;;;;;79.80;30.52;;;16.70;86.00;;;;;;5087653;28;20113;-56
2021/06/29 05:15:07;;;;;;;99.10;35.45;;;16.70;87.80;;;;;;5086259;28;20389;-55
2021/06/29 05:17:35;;;;;;;89.82;34.78;;;16.60;86.90;;;;;;5089546;28;20413;-54
2021/06/29 05:20:07;;;;;;;101.90;36.00;;;16.60;86.50;;;;;;5088954;28;20122;-52
2021/06/29 05:22:34;;;;;;;86.57;34.95;;;16.60;88.30;;;;;;5090031;28;20489;-57
2021/06/29 05:25:02;;;;;;;108.95;40.25;;;16.50;87.40;;;;;;5085167;28;20081;-55
2021/06/29 05:27:30;;;;;;;91.47;36.50;;;16.50;86.90;;;;;;5088668;28;20102;-50
2021/06/29 05:29:58;;;;;;;100.50;39.25;;;16.50;87.10;;;;;;5089857;28;20495;-51
2021/06/29 05:32:25;;;;;;;97.53;37.75;;;16.40;86.90;;;;;;5087610;28;20490;-53
2021/06/29 05:34:52;;;;;;;89.75;37.30;;;16.40;87.90;;;;;;5084655;28;20027;-54
2021/06/29 05:37:20;;;;;;;80.22;34.92;;;16.40;87.90;;;;;;5088271;28;20024;-51
2021/06/29 05:39:47;;;;;;;93.55;37.83;;;16.40;88.80;;;;;;5089221;28;20063;-54
2021/06/29 05:42:15;;;;;;;86.63;34.40;;;16.40;88.00;;;;;;5087765;28;20565;-51
2021/06/29 05:44:42;;;;;;;93.18;37.63;;;16.40;88.50;;;;;;5085449;28;20130;-55
2021/06/29 05:47:10;;;;;;;93.03;36.70;;;16.30;88.10;;;;;;5089761;28;20095;-52
2021/06/29 05:49:38;;;;;;;107.50;41.58;;;16.40;88.20;;;;;;5088890;28;20056;-56
2021/06/29 05:52:05;;;;;;;72.00;29.80;;;16.30;87.60;;;;;;5088994;28;20579;-53
2021/06/29 05:54:33;;;;;;;91.70;37.08;;;16.30;89.40;;;;;;5086011;28;20111;-55
2021/06/29 05:57:00;;;;;;;87.07;36.75;;;16.30;87.90;;;;;;5089791;28;20059;-57
2021/06/29 05:59:27;;;;;;;93.15;37.92;;;16.30;87.50;;;;;;5089043;28;20040;-57
2021/06/29 06:01:55;;;;;;;91.80;39.25;;;16.30;87.30;;;;;;5090632;28;20070;-59
2021/06/29 06:04:24;;;;;;;87.57;34.67;;;16.30;87.50;;;;;;5085353;28;20064;-54
2021/06/29 06:06:51;;;;;;;82.47;32.85;;;16.30;87.90;;;;;;5088393;28;20429;-56
2021/06/29 06:09:19;;;;;;;78.57;34.40;;;16.20;87.70;;;;;;5088904;28;20032;-56
2021/06/29 06:11:46;;;;;;;80.75;32.72;;;16.30;88.00;;;;;;5089141;28;20020;-55
2021/06/29 06:14:13;;;;;;;93.85;35.28;;;16.30;88.10;;;;;;5089215;28;20032;-58
2021/06/29 06:16:41;;;;;;;80.28;32.30;;;16.20;88.20;;;;;;5090924;28;20023;-58
2021/06/29 06:19:08;;;;;;;72.45;31.63;;;16.20;90.80;;;;;;5090459;28;20028;-56
2021/06/29 06:21:35;;;;;;;74.47;32.10;;;16.20;89.40;;;;;;5081435;28;20057;-57
2021/06/29 06:24:03;;;;;;;81.25;32.35;;;16.20;89.90;;;;;;5090298;28;20406;-60
2021/06/29 06:26:30;;;;;;;83.47;34.42;;;16.20;88.10;;;;;;5085254;28;20093;-57
2021/06/29 06:28:57;;;;;;;84.88;34.20;;;16.20;87.90;;;;;;5090347;28;20392;-61
2021/06/29 06:31:25;;;;;;;69.28;32.17;;;16.20;88.00;;;;;;5086476;28;20114;-59
2021/06/29 06:33:52;;;;;;;75.85;32.40;;;16.20;89.70;;;;;;5088844;28;20020;-59
2021/06/29 06:36:20;;;;;;;70.05;29.65;;;16.20;88.70;;;;;;5087207;28;20023;-50
2021/06/29 06:38:47;;;;;;;82.25;34.15;;;16.20;89.40;;;;;;5086810;28;20032;-55
2021/06/29 06:41:14;;;;;;;72.80;32.13;;;16.20;88.00;;;;;;5085152;28;20032;-53
2021/06/29 06:43:46;;;;;;;84.05;32.88;;;16.20;88.30;;;;;;5083327;28;20036;-60
2021/06/29 06:46:13;;;;;;;80.03;34.08;;;16.20;89.80;;;;;;5085519;28;20028;-59
2021/06/29 06:48:42;;;;;;;82.75;33.45;;;16.20;88.40;;;;;;5092035;28;20028;-60
2021/06/29 06:51:10;;;;;;;76.50;32.67;;;16.10;88.00;;;;;;5091504;28;20032;-59
2021/06/29 06:53:38;;;;;;;80.60;33.15;;;16.10;88.00;;;;;;5090753;28;20444;-52
2021/06/29 06:56:05;;;;;;;63.60;28.75;;;16.20;88.40;;;;;;5091683;28;20073;-57
2021/06/29 06:58:33;;;;;;;79.53;32.20;;;16.10;89.20;;;;;;5092150;28;20032;-55
2021/06/29 07:01:00;;;;;;;68.97;30.65;;;16.10;88.60;;;;;;5090932;28;20499;-54
2021/06/29 07:03:27;;;;;;;70.95;31.80;;;16.10;88.30;;;;;;5088502;28;20028;-56
2021/06/29 07:05:55;;;;;;;61.90;30.83;;;16.10;88.90;;;;;;5091944;28;20036;-54
2021/06/29 07:08:22;;;;;;;64.45;31.25;;;16.10;89.30;;;;;;5092136;28;20135;-53
2021/06/29 07:10:53;;;;;;;67.60;29.25;;;16.10;88.70;;;;;;5090390;28;20116;-56
2021/06/29 07:13:20;;;;;;;68.53;29.73;;;16.10;89.30;;;;;;5087512;28;20439;-54
2021/06/29 07:15:48;;;;;;;65.72;30.77;;;16.10;89.10;;;;;;5087881;28;20016;-52
2021/06/29 07:18:20;;;;;;;66.47;28.73;;;16.10;88.70;;;;;;5089082;28;20085;-53
2021/06/29 07:20:48;;;;;;;66.03;28.65;;;16.10;89.10;;;;;;5090261;28;20062;-55
2021/06/29 07:23:18;;;;;;;58.60;27.00;;;16.10;90.00;;;;;;5087878;28;20331;-59
2021/06/29 07:25:45;;;;;;;56.83;26.10;;;16.10;90.10;;;;;;5091263;28;20063;-61
2021/06/29 07:28:13;;;;;;;75.63;30.77;;;16.10;90.00;;;;;;5088944;28;20055;-52
2021/06/29 07:30:41;;;;;;;63.67;28.02;;;16.10;90.10;;;;;;5087666;28;20838;-53
2021/06/29 07:33:09;;;;;;;65.15;28.40;;;16.10;90.20;;;;;;5086042;28;20031;-52
2021/06/29 07:35:36;;;;;;;55.17;27.63;;;16.00;89.80;;;;;;5090543;28;20016;-53
2021/06/29 07:38:06;;;;;;;51.78;25.45;;;16.00;89.30;;;;;;5090573;28;20115;-54
2021/06/29 07:40:33;;;;;;;65.72;29.75;;;16.00;90.20;;;;;;5089374;28;20070;-54
2021/06/29 07:43:01;;;;;;;65.03;28.77;;;16.00;89.30;;;;;;5087372;28;20078;-54
2021/06/29 07:45:30;;;;;;;56.28;27.33;;;16.00;89.10;;;;;;5090137;28;20115;-56
2021/06/29 07:48:02;;;;;;;65.65;29.48;;;16.00;89.10;;;;;;5090637;28;20490;-52
2021/06/29 07:50:31;;;;;;;63.30;31.73;;;16.00;88.90;;;;;;5090421;28;20114;-53
2021/06/29 07:53:02;;;;;;;64.28;33.55;;;16.00;89.10;;;;;;5086511;28;20031;-54
2021/06/29 07:55:30;;;;;;;81.90;35.92;;;16.00;88.80;;;;;;5090940;28;20053;-59
2021/06/29 07:57:58;;;;;;;61.63;33.17;;;16.00;88.80;;;;;;5089843;28;20066;-55
2021/06/29 08:00:26;;;;;;;66.18;34.53;;;16.00;89.00;;;;;;5089359;28;20044;-51
2021/06/29 08:02:54;;;;;;;68.82;34.28;;;16.00;89.80;;;;;;5068694;28;20034;-56
2021/06/29 08:05:22;;;;;;;68.57;36.58;;;16.00;89.50;;;;;;5093250;28;20070;-60
2021/06/29 08:07:49;;;;;;;68.75;36.72;;;16.00;89.50;;;;;;5092063;28;20069;-57
2021/06/29 08:10:17;;;;;;;63.70;34.75;;;16.00;89.60;;;;;;5093155;28;20111;-58
2021/06/29 08:12:44;;;;;;;67.53;37.78;;;16.00;89.90;;;;;;5092881;28;20024;-58
2021/06/29 08:15:15;;;;;;;66.78;36.15;;;16.00;89.10;;;;;;5092928;28;20024;-54
2021/06/29 08:17:45;;;;;;;64.43;35.92;;;16.00;89.90;;;;;;5093140;28;20020;-57
2021/06/29 08:20:15;;;;;;;61.92;35.58;;;16.00;89.40;;;;;;5091365;28;20072;-52
2021/06/29 08:22:43;;;;;;;63.05;37.72;;;16.00;89.30;;;;;;5093345;28;20482;-56
2021/06/29 08:25:11;;;;;;;65.40;36.97;;;16.00;89.40;;;;;;5093261;28;20532;-55
2021/06/29 08:27:39;;;;;;;65.75;38.10;;;16.00;89.50;;;;;;5092229;28;20059;-53
2021/06/29 08:30:09;;;;;;;77.15;39.15;;;16.00;89.30;;;;;;5092710;28;20431;-54
2021/06/29 08:32:40;;;;;;;74.65;43.55;;;16.00;89.50;;;;;;5092724;28;20024;-56
2021/06/29 08:35:09;;;;;;;65.10;40.05;;;16.00;89.40;;;;;;5090909;28;20024;-57
2021/06/29 08:37:38;;;;;;;70.30;42.83;;;16.00;90.10;;;;;;5093193;28;20024;-53
2021/06/29 08:40:08;;;;;;;72.85;42.13;;;16.00;90.10;;;;;;5092549;28;20116;-58
2021/06/29 08:42:39;;;;;;;65.72;40.70;;;16.00;89.80;;;;;;5094321;28;20059;-58
2021/06/29 08:45:09;;;;;;;77.35;43.20;;;16.00;90.20;;;;;;5093391;28;20082;-59
2021/06/29 08:47:38;;;;;;;67.80;41.67;;;16.00;90.00;;;;;;5063566;28;20059;-57
2021/06/29 08:50:08;;;;;;;66.82;41.28;;;16.00;90.00;;;;;;5091505;28;20035;-56
2021/06/29 08:52:35;;;;;;;57.80;37.53;;;16.00;90.20;;;;;;5091938;28;20102;-53
2021/06/29 08:55:05;;;;;;;54.75;34.60;;;16.00;90.10;;;;;;5088406;28;20035;-56
2021/06/29 08:57:32;;;;;;;65.85;39.00;;;16.00;90.40;;;;;;5089820;28;20017;-54
2021/06/29 09:00:00;;;;;;;58.97;35.70;;;16.00;90.10;;;;;;5090279;28;20474;-57
2021/06/29 09:02:29;;;;;;;58.38;36.28;;;16.00;90.40;;;;;;5089041;28;20097;-59
2021/06/29 09:05:23;;;;;;;57.08;35.88;;;16.00;89.90;;;;;;5083647;28;20410;-59
2021/06/29 09:08:08;;;;;;;59.75;36.20;;;16.10;90.00;;;;;;5087059;28;20056;-55
2021/06/29 09:10:38;;;;;;;70.00;35.38;;;16.10;89.80;;;;;;5088763;28;20470;-56
2021/06/29 09:13:06;;;;;;;65.75;35.50;;;16.10;89.80;;;;;;5089478;28;20359;-55
2021/06/29 09:15:37;;;;;;;63.97;36.10;;;16.10;90.00;;;;;;5087000;28;21348;-54
2021/06/29 09:18:09;;;;;;;60.42;34.22;;;16.10;89.50;;;;;;5089611;28;20028;-58
2021/06/29 09:20:43;;;;;;;53.15;32.47;;;16.20;89.50;;;;;;5089262;28;20104;-51
2021/06/29 09:23:31;;;;;;;51.50;32.10;;;16.20;89.50;;;;;;5089426;28;20032;-57
2021/06/29 09:26:06;;;;;;;57.90;31.67;;;16.20;89.50;;;;;;5085731;28;20032;-58
2021/06/29 09:28:39;;;;;;;72.93;32.08;;;16.20;89.50;;;;;;5088348;28;20032;-56
2021/06/29 09:31:10;;;;;;;52.13;31.63;;;16.20;89.70;;;;;;5089801;28;20087;-60
2021/06/29 09:33:53;;;;;;;51.88;30.67;;;16.20;90.00;;;;;;5088721;28;20356;-53
2021/06/29 09:36:23;;;;;;;49.08;27.73;;;16.30;89.90;;;;;;5088943;28;20107;-55
2021/06/29 09:38:53;;;;;;;49.83;29.98;;;16.30;89.90;;;;;;5089383;28;20429;-60
2021/06/29 09:41:32;;;;;;;48.50;29.42;;;16.20;90.00;;;;;;5090345;28;20036;-56
2021/06/29 09:44:07;;;;;;;43.90;26.25;;;16.30;90.00;;;;;;5083339;28;20036;-54
2021/06/29 09:46:39;;;;;;;48.05;27.85;;;16.30;90.00;;;;;;5087948;28;20441;-57
2021/06/29 09:49:13;;;;;;;45.80;27.47;;;16.30;90.00;;;;;;5089249;28;20020;-54
2021/06/29 09:51:43;;;;;;;46.47;27.40;;;16.30;90.10;;;;;;5088758;28;20265;-54
2021/06/29 09:54:13;;;;;;;44.22;26.40;;;16.30;90.10;;;;;;5085001;28;20043;-57
2021/06/29 09:56:44;;;;;;;42.42;24.58;;;16.30;90.10;;;;;;5089708;28;20043;-54
2021/06/29 09:59:17;;;;;;;43.28;24.27;;;16.30;90.10;;;;;;5091323;28;20577;-61
2021/06/29 10:01:48;;;;;;;38.50;23.75;;;16.30;90.20;;;;;;5087432;28;20382;-62
2021/06/29 10:04:15;;;;;;;38.85;21.20;;;16.30;90.20;;;;;;5085736;28;20101;-52
2021/06/29 10:06:44;;;;;;;40.47;22.52;;;16.30;90.20;;;;;;5089521;28;20030;-60
2021/06/29 10:09:16;;;;;;;40.35;23.75;;;16.30;90.10;;;;;;5088773;28;20032;-59
2021/06/29 10:11:51;;;;;;;;;;;16.30;90.20;;;;;;5089196;28;20024;-54
2021/06/29 10:14:21;;;;;;;39.50;22.15;;;16.30;90.20;;;;;;5085075;28;20329;-56
2021/06/29 10:16:54;;;;;;;37.67;20.45;;;16.40;90.70;;;;;;5089012;28;20036;-53
2021/06/29 10:19:32;;;;;;;32.45;19.75;;;16.30;90.50;;;;;;5089525;28;20032;-55
2021/06/29 10:22:04;;;;;;;38.15;20.75;;;16.30;90.50;;;;;;5092492;28;20028;-52
2021/06/29 10:24:37;;;;;;;35.00;20.65;;;16.30;90.40;;;;;;5089682;28;20111;-54
2021/06/29 10:27:06;;;;;;;;;;;16.30;90.40;;;;;;5093389;28;20047;-57
2021/06/29 10:29:35;;;;;;;33.40;20.50;;;16.30;90.40;;;;;;5092281;28;19904;-57
2021/06/29 10:32:09;;;;;;;36.40;21.50;;;16.20;90.60;;;;;;5093438;28;20027;-57
2021/06/29 10:34:38;;;;;;;29.58;18.83;;;16.30;90.60;;;;;;5090029;28;20020;-55
2021/06/29 10:37:07;;;;;;;34.42;20.65;;;16.20;90.50;;;;;;5092565;28;20107;-58
2021/06/29 10:39:36;;;;;;;31.95;19.38;;;16.20;90.50;;;;;;5092767;28;20028;-53
2021/06/29 10:42:07;;;;;;;30.20;19.42;;;16.20;90.50;;;;;;5093081;28;20020;-56
2021/06/29 10:44:40;;;;;;;29.80;17.75;;;16.20;90.50;;;;;;5088598;28;20031;-55
2021/06/29 10:47:30;;;;;;;31.38;18.70;;;16.20;90.50;;;;;;5092834;28;20032;-53
2021/06/29 10:50:00;;;;;;;28.70;18.23;;;16.20;90.50;;;;;;5091973;28;20389;-51
2021/06/29 10:52:27;;;;;;;29.25;17.45;;;16.20;90.60;;;;;;5092654;28;20104;-55
2021/06/29 10:55:04;;;;;;;28.83;16.95;;;16.20;90.50;;;;;;5088944;28;20024;-53
2021/06/29 10:57:48;;;;;;;28.73;16.88;;;16.20;90.50;;;;;;5091224;28;20108;-48
2021/06/29 11:00:21;;;;;;;27.70;16.80;;;16.20;90.50;;;;;;5093044;28;20034;-50
2021/06/29 11:03:10;;;;;;;26.15;16.88;;;16.20;90.60;;;;;;5092032;28;20413;-50
2021/06/29 11:05:44;;;;;;;30.23;17.73;;;16.20;90.50;;;;;;5088169;28;20026;-50
2021/06/29 11:08:11;;;;;;;28.65;16.30;;;16.20;90.50;;;;;;5092486;28;20063;-51
2021/06/29 11:10:41;;;;;;;24.92;15.38;;;16.20;90.60;;;;;;5093033;28;20024;-49
2021/06/29 11:13:11;;;;;;;27.52;16.92;;;16.20;90.50;;;;;;5092709;28;20426;-52
2021/06/29 11:15:51;;;;;;;28.70;15.57;;;16.20;90.50;;;;;;5088643;28;20038;-50
2021/06/29 11:18:21;;;;;;;30.20;15.88;;;16.20;90.50;;;;;;5091458;28;20055;-52
2021/06/29 11:20:54;;;;;;;28.88;15.82;;;16.20;90.40;;;;;;5092993;28;20054;-49
2021/06/29 11:23:30;;;;;;;26.60;16.30;;;16.10;90.50;;;;;;5092574;28;20486;-55
2021/06/29 11:26:18;;;;;;;24.80;14.77;;;16.10;90.50;;;;;;5088091;28;20055;-52
2021/06/29 11:28:49;;;;;;;23.23;15.73;;;16.10;90.40;;;;;;5092367;28;20486;-54
2021/06/29 11:31:22;;;;;;;30.08;16.55;;;16.10;90.40;;;;;;5091541;28;20126;-56
2021/06/29 11:33:56;;;;;;;25.45;15.02;;;16.10;90.50;;;;;;5093090;28;20032;-56
2021/06/29 11:36:26;;;;;;;23.70;14.75;;;16.10;90.50;;;;;;5093362;28;20085;-56
2021/06/29 11:39:13;;;;;;;23.20;14.73;;;16.00;90.40;;;;;;5087524;28;20038;-58
2021/06/29 11:41:42;;;;;;;26.38;15.93;;;16.00;90.60;;;;;;5085607;28;20024;-52
2021/06/29 11:44:13;;;;;;;21.15;13.82;;;16.00;90.50;;;;;;5090856;28;20101;-51
2021/06/29 11:46:53;;;;;;;26.33;15.60;;;16.00;90.60;;;;;;5091480;28;20024;-53
2021/06/29 11:49:47;;;;;;;21.70;13.68;;;15.90;90.50;;;;;;5089860;28;20442;-51
2021/06/29 11:52:16;;;;;;;19.63;13.63;;;15.90;90.60;;;;;;5088736;28;20375;-49
2021/06/29 11:54:57;;;;;;;22.05;13.63;;;15.90;90.60;;;;;;5089711;28;20117;-53
2021/06/29 11:57:32;;;;;;;21.60;14.68;;;15.90;90.70;;;;;;5092691;28;20427;-53
2021/06/29 12:00:20;;;;;;;21.77;13.65;;;15.90;90.70;;;;;;5090256;28;20048;-51
2021/06/29 12:02:51;;;;;;;21.02;13.48;;;15.90;90.70;;;;;;5087620;28;20090;-55
2021/06/29 12:05:21;;;;;;;19.55;13.07;;;15.80;90.60;;;;;;5090218;28;20059;-55
2021/06/29 12:07:55;;;;;;;21.38;12.65;;;15.80;90.70;;;;;;5091392;28;20024;-52
2021/06/29 12:10:24;;;;;;;23.27;14.18;;;15.80;90.70;;;;;;5089352;28;20028;-54
2021/06/29 12:13:01;;;;;;;29.30;14.55;;;15.80;90.60;;;;;;5087227;28;20030;-54
2021/06/29 12:15:40;;;;;;;23.27;13.63;;;15.80;90.70;;;;;;5090756;28;20020;-59
2021/06/29 12:18:16;;;;;;;24.85;13.40;;;15.80;90.70;;;;;;5089973;28;20032;-57
2021/06/29 12:20:54;;;;;;;21.67;13.60;;;15.80;90.80;;;;;;5090921;28;20032;-54
2021/06/29 12:23:24;;;;;;;20.08;12.77;;;15.80;90.80;;;;;;5088554;28;20058;-56
2021/06/29 12:25:54;;;;;;;22.17;12.70;;;15.80;90.90;;;;;;5090565;28;20031;-55
2021/06/29 12:28:25;;;;;;;28.75;13.20;;;15.80;90.90;;;;;;5089267;28;20036;-52
2021/06/29 12:30:57;;;;;;;27.23;13.07;;;15.80;91.30;;;;;;5090658;28;20044;-57
2021/06/29 12:33:36;;;;;;;19.67;12.35;;;15.80;91.30;;;;;;5089801;28;20027;-59
2021/06/29 12:36:05;;;;;;;19.33;11.80;;;15.80;91.20;;;;;;5090999;28;20095;-57
2021/06/29 12:38:44;;;;;;;23.55;11.80;;;15.80;91.50;;;;;;5091088;28;20028;-57
2021/06/29 12:41:26;;;;;;;21.48;11.23;;;15.80;91.20;;;;;;5087067;28;20051;-56
2021/06/29 12:43:59;;;;;;;19.52;11.52;;;15.80;91.10;;;;;;5089558;28;20035;-55
2021/06/29 12:46:29;;;;;;;22.33;11.98;;;15.80;91.20;;;;;;5090568;28;20035;-56
2021/06/29 12:49:24;;;;;;;22.75;11.32;;;15.90;91.10;;;;;;5090749;28;20390;-57
2021/06/29 12:52:01;;;;;;;20.75;11.18;;;15.90;91.00;;;;;;5085642;28;20615;-55
2021/06/29 12:54:30;;;;;;;19.15;11.05;;;15.90;90.90;;;;;;5090708;28;20020;-51